sensor_id;sensor_type;location;lat;lon;timestamp;P1;durP1;ratioP1;P2;durP2;ratioP2
3985;SDS011;2007;48.750;9.278;2023-02-12T00:01:01;4.40;;;4.00;;
3985;SDS011;2007;48.750;9.278;2023-02-12T00:03:29;3.70;;;3.23;;
3985;SDS011;2007;48.750;9.278;2023-02-12T00:05:59;4.90;;;4.40;;
3985;SDS011;2007;48.750;9.278;2023-02-12T00:08:27;4.57;;;4.17;;
3985;SDS011;2007;48.750;9.278;2023-02-12T00:10:57;5.10;;;4.57;;
3985;SDS011;2007;48.750;9.278;2023-02-12T00:13:24;5.23;;;4.20;;
3985;SDS011;2007;48.750;9.278;2023-02-12T00:15:52;5.83;;;5.23;;
3985;SDS011;2007;48.750;9.278;2023-02-12T00:18:21;4.87;;;4.07;;
3985;SDS011;2007;48.750;9.278;2023-02-12T00:20:49;4.40;;;4.00;;
3985;SDS011;2007;48.750;9.278;2023-02-12T00:23:16;5.53;;;4.97;;
3985;SDS011;2007;48.750;9.278;2023-02-12T00:25:44;5.67;;;5.03;;
3985;SDS011;2007;48.750;9.278;2023-02-12T00:28:14;5.27;;;4.60;;
3985;SDS011;2007;48.750;9.278;2023-02-12T00:30:42;5.60;;;4.47;;
3985;SDS011;2007;48.750;9.278;2023-02-12T00:33:10;4.57;;;4.17;;
3985;SDS011;2007;48.750;9.278;2023-02-12T00:35:37;5.07;;;4.57;;
3985;SDS011;2007;48.750;9.278;2023-02-12T00:38:05;4.83;;;4.10;;
3985;SDS011;2007;48.750;9.278;2023-02-12T00:40:33;5.43;;;4.70;;
3985;SDS011;2007;48.750;9.278;2023-02-12T00:43:01;4.33;;;3.90;;
3985;SDS011;2007;48.750;9.278;2023-02-12T00:45:31;4.87;;;4.37;;
3985;SDS011;2007;48.750;9.278;2023-02-12T00:47:58;8.53;;;7.00;;
3985;SDS011;2007;48.750;9.278;2023-02-12T00:50:26;5.67;;;4.50;;
3985;SDS011;2007;48.750;9.278;2023-02-12T00:52:57;4.57;;;4.10;;
3985;SDS011;2007;48.750;9.278;2023-02-12T00:55:25;5.30;;;4.17;;
3985;SDS011;2007;48.750;9.278;2023-02-12T00:57:52;7.43;;;5.10;;
3985;SDS011;2007;48.750;9.278;2023-02-12T01:00:21;4.70;;;4.30;;
3985;SDS011;2007;48.750;9.278;2023-02-12T01:02:50;5.20;;;4.50;;
3985;SDS011;2007;48.750;9.278;2023-02-12T01:05:18;5.10;;;4.60;;
3985;SDS011;2007;48.750;9.278;2023-02-12T01:07:47;5.20;;;4.10;;
3985;SDS011;2007;48.750;9.278;2023-02-12T01:10:16;7.00;;;5.00;;
3985;SDS011;2007;48.750;9.278;2023-02-12T01:12:45;4.87;;;4.37;;
3985;SDS011;2007;48.750;9.278;2023-02-12T01:15:14;5.73;;;5.13;;
3985;SDS011;2007;48.750;9.278;2023-02-12T01:17:42;7.37;;;5.23;;
3985;SDS011;2007;48.750;9.278;2023-02-12T01:20:12;4.97;;;4.47;;
3985;SDS011;2007;48.750;9.278;2023-02-12T01:22:43;9.13;;;4.70;;
3985;SDS011;2007;48.750;9.278;2023-02-12T01:25:11;5.80;;;5.17;;
3985;SDS011;2007;48.750;9.278;2023-02-12T01:27:40;6.60;;;5.00;;
3985;SDS011;2007;48.750;9.278;2023-02-12T01:30:09;5.50;;;5.00;;
3985;SDS011;2007;48.750;9.278;2023-02-12T01:32:38;5.63;;;4.77;;
3985;SDS011;2007;48.750;9.278;2023-02-12T01:35:07;7.40;;;5.20;;
3985;SDS011;2007;48.750;9.278;2023-02-12T01:37:40;8.10;;;5.30;;
3985;SDS011;2007;48.750;9.278;2023-02-12T01:40:08;4.70;;;4.30;;
3985;SDS011;2007;48.750;9.278;2023-02-12T01:42:40;4.43;;;4.03;;
3985;SDS011;2007;48.750;9.278;2023-02-12T01:45:17;5.77;;;5.10;;
3985;SDS011;2007;48.750;9.278;2023-02-12T01:48:20;7.13;;;5.23;;
3985;SDS011;2007;48.750;9.278;2023-02-12T01:50:51;7.40;;;5.17;;
3985;SDS011;2007;48.750;9.278;2023-02-12T01:53:22;7.27;;;5.27;;
3985;SDS011;2007;48.750;9.278;2023-02-12T01:55:55;5.70;;;4.30;;
3985;SDS011;2007;48.750;9.278;2023-02-12T01:58:27;6.40;;;5.20;;
3985;SDS011;2007;48.750;9.278;2023-02-12T02:01:01;5.03;;;4.40;;
3985;SDS011;2007;48.750;9.278;2023-02-12T02:03:31;8.37;;;5.50;;
3985;SDS011;2007;48.750;9.278;2023-02-12T02:06:01;6.27;;;4.70;;
3985;SDS011;2007;48.750;9.278;2023-02-12T02:08:34;6.27;;;5.17;;
3985;SDS011;2007;48.750;9.278;2023-02-12T02:11:03;5.40;;;4.73;;
3985;SDS011;2007;48.750;9.278;2023-02-12T02:13:51;5.83;;;5.03;;
3985;SDS011;2007;48.750;9.278;2023-02-12T02:16:39;6.10;;;5.10;;
3985;SDS011;2007;48.750;9.278;2023-02-12T02:19:14;5.77;;;5.17;;
3985;SDS011;2007;48.750;9.278;2023-02-12T02:22:01;6.60;;;5.70;;
3985;SDS011;2007;48.750;9.278;2023-02-12T02:27:47;5.13;;;4.53;;
3985;SDS011;2007;48.750;9.278;2023-02-12T02:30:31;6.00;;;5.40;;
3985;SDS011;2007;48.750;9.278;2023-02-12T02:33:14;5.60;;;5.00;;
3985;SDS011;2007;48.750;9.278;2023-02-12T02:35:51;6.60;;;4.83;;
3985;SDS011;2007;48.750;9.278;2023-02-12T02:38:28;6.50;;;5.03;;
3985;SDS011;2007;48.750;9.278;2023-02-12T02:41:03;6.00;;;5.30;;
3985;SDS011;2007;48.750;9.278;2023-02-12T02:43:35;7.03;;;4.80;;
3985;SDS011;2007;48.750;9.278;2023-02-12T02:46:07;7.37;;;5.83;;
3985;SDS011;2007;48.750;9.278;2023-02-12T02:48:40;6.03;;;5.47;;
3985;SDS011;2007;48.750;9.278;2023-02-12T02:51:13;6.60;;;5.03;;
3985;SDS011;2007;48.750;9.278;2023-02-12T02:53:43;7.00;;;5.17;;
3985;SDS011;2007;48.750;9.278;2023-02-12T02:56:15;6.30;;;5.40;;
3985;SDS011;2007;48.750;9.278;2023-02-12T02:58:45;6.20;;;5.00;;
3985;SDS011;2007;48.750;9.278;2023-02-12T03:01:19;7.37;;;5.80;;
3985;SDS011;2007;48.750;9.278;2023-02-12T03:03:50;6.30;;;5.50;;
3985;SDS011;2007;48.750;9.278;2023-02-12T03:06:23;6.73;;;5.57;;
3985;SDS011;2007;48.750;9.278;2023-02-12T03:08:56;6.03;;;5.20;;
3985;SDS011;2007;48.750;9.278;2023-02-12T03:11:28;6.57;;;5.00;;
3985;SDS011;2007;48.750;9.278;2023-02-12T03:13:59;8.67;;;5.20;;
3985;SDS011;2007;48.750;9.278;2023-02-12T03:16:35;5.60;;;5.07;;
3985;SDS011;2007;48.750;9.278;2023-02-12T03:19:07;5.00;;;4.50;;
3985;SDS011;2007;48.750;9.278;2023-02-12T03:21:40;6.50;;;5.90;;
3985;SDS011;2007;48.750;9.278;2023-02-12T03:24:15;5.17;;;4.73;;
3985;SDS011;2007;48.750;9.278;2023-02-12T03:26:49;6.03;;;5.27;;
3985;SDS011;2007;48.750;9.278;2023-02-12T03:29:20;6.27;;;5.30;;
3985;SDS011;2007;48.750;9.278;2023-02-12T03:31:54;6.43;;;5.50;;
3985;SDS011;2007;48.750;9.278;2023-02-12T03:34:29;7.57;;;5.80;;
3985;SDS011;2007;48.750;9.278;2023-02-12T03:37:07;6.27;;;5.67;;
3985;SDS011;2007;48.750;9.278;2023-02-12T03:39:42;6.70;;;5.37;;
3985;SDS011;2007;48.750;9.278;2023-02-12T03:42:16;6.00;;;5.40;;
3985;SDS011;2007;48.750;9.278;2023-02-12T03:44:52;7.83;;;6.37;;
3985;SDS011;2007;48.750;9.278;2023-02-12T03:47:28;5.73;;;5.10;;
3985;SDS011;2007;48.750;9.278;2023-02-12T03:50:06;6.93;;;5.40;;
3985;SDS011;2007;48.750;9.278;2023-02-12T03:52:40;7.20;;;6.13;;
3985;SDS011;2007;48.750;9.278;2023-02-12T03:55:08;6.10;;;5.50;;
3985;SDS011;2007;48.750;9.278;2023-02-12T03:57:38;7.53;;;5.70;;
3985;SDS011;2007;48.750;9.278;2023-02-12T04:00:10;7.07;;;5.90;;
3985;SDS011;2007;48.750;9.278;2023-02-12T04:02:41;6.53;;;5.50;;
3985;SDS011;2007;48.750;9.278;2023-02-12T04:05:15;6.93;;;5.83;;
3985;SDS011;2007;48.750;9.278;2023-02-12T04:07:44;6.20;;;5.50;;
3985;SDS011;2007;48.750;9.278;2023-02-12T04:10:12;6.73;;;5.50;;
3985;SDS011;2007;48.750;9.278;2023-02-12T04:12:42;6.53;;;5.90;;
3985;SDS011;2007;48.750;9.278;2023-02-12T04:15:35;6.30;;;5.70;;
3985;SDS011;2007;48.750;9.278;2023-02-12T04:18:13;6.40;;;5.70;;
3985;SDS011;2007;48.750;9.278;2023-02-12T04:20:48;6.67;;;5.97;;
3985;SDS011;2007;48.750;9.278;2023-02-12T04:23:24;6.07;;;5.20;;
3985;SDS011;2007;48.750;9.278;2023-02-12T04:26:06;5.87;;;5.10;;
3985;SDS011;2007;48.750;9.278;2023-02-12T04:28:42;9.27;;;7.60;;
3985;SDS011;2007;48.750;9.278;2023-02-12T04:31:19;7.60;;;6.10;;
3985;SDS011;2007;48.750;9.278;2023-02-12T04:33:57;7.47;;;5.57;;
3985;SDS011;2007;48.750;9.278;2023-02-12T04:36:32;6.10;;;5.40;;
3985;SDS011;2007;48.750;9.278;2023-02-12T04:39:03;5.60;;;5.10;;
3985;SDS011;2007;48.750;9.278;2023-02-12T04:41:36;7.30;;;6.60;;
3985;SDS011;2007;48.750;9.278;2023-02-12T04:44:14;9.17;;;6.00;;
3985;SDS011;2007;48.750;9.278;2023-02-12T04:46:44;6.97;;;5.50;;
3985;SDS011;2007;48.750;9.278;2023-02-12T04:49:14;5.97;;;5.33;;
3985;SDS011;2007;48.750;9.278;2023-02-12T04:51:44;8.00;;;6.73;;
3985;SDS011;2007;48.750;9.278;2023-02-12T04:54:13;7.50;;;5.70;;
3985;SDS011;2007;48.750;9.278;2023-02-12T04:56:42;6.73;;;5.77;;
3985;SDS011;2007;48.750;9.278;2023-02-12T04:59:10;6.40;;;5.80;;
3985;SDS011;2007;48.750;9.278;2023-02-12T05:01:38;8.70;;;6.40;;
3985;SDS011;2007;48.750;9.278;2023-02-12T05:04:07;8.10;;;6.07;;
3985;SDS011;2007;48.750;9.278;2023-02-12T05:06:39;6.73;;;6.00;;
3985;SDS011;2007;48.750;9.278;2023-02-12T05:09:09;7.97;;;6.03;;
3985;SDS011;2007;48.750;9.278;2023-02-12T05:11:39;7.73;;;6.20;;
3985;SDS011;2007;48.750;9.278;2023-02-12T05:14:07;6.37;;;5.53;;
3985;SDS011;2007;48.750;9.278;2023-02-12T05:16:35;7.30;;;6.30;;
3985;SDS011;2007;48.750;9.278;2023-02-12T05:19:02;7.03;;;5.43;;
3985;SDS011;2007;48.750;9.278;2023-02-12T05:21:30;6.17;;;5.40;;
3985;SDS011;2007;48.750;9.278;2023-02-12T05:24:01;8.60;;;5.50;;
3985;SDS011;2007;48.750;9.278;2023-02-12T05:26:29;7.30;;;5.97;;
3985;SDS011;2007;48.750;9.278;2023-02-12T05:28:57;9.03;;;5.50;;
3985;SDS011;2007;48.750;9.278;2023-02-12T05:31:24;7.00;;;6.30;;
3985;SDS011;2007;48.750;9.278;2023-02-12T05:33:53;5.90;;;4.80;;
3985;SDS011;2007;48.750;9.278;2023-02-12T05:36:21;7.93;;;6.13;;
3985;SDS011;2007;48.750;9.278;2023-02-12T05:38:50;6.93;;;5.57;;
3985;SDS011;2007;48.750;9.278;2023-02-12T05:41:22;7.60;;;5.50;;
3985;SDS011;2007;48.750;9.278;2023-02-12T05:43:50;7.80;;;6.30;;
3985;SDS011;2007;48.750;9.278;2023-02-12T05:46:19;6.70;;;5.63;;
3985;SDS011;2007;48.750;9.278;2023-02-12T05:48:48;7.37;;;6.50;;
3985;SDS011;2007;48.750;9.278;2023-02-12T05:51:17;8.07;;;6.20;;
3985;SDS011;2007;48.750;9.278;2023-02-12T05:53:47;7.13;;;6.07;;
3985;SDS011;2007;48.750;9.278;2023-02-12T05:56:16;7.60;;;6.40;;
3985;SDS011;2007;48.750;9.278;2023-02-12T05:58:50;6.97;;;6.13;;
3985;SDS011;2007;48.750;9.278;2023-02-12T06:01:21;6.43;;;5.80;;
3985;SDS011;2007;48.750;9.278;2023-02-12T06:03:50;9.73;;;6.40;;
3985;SDS011;2007;48.750;9.278;2023-02-12T06:06:18;6.73;;;5.27;;
3985;SDS011;2007;48.750;9.278;2023-02-12T06:08:46;6.97;;;6.10;;
3985;SDS011;2007;48.750;9.278;2023-02-12T06:11:15;7.70;;;5.90;;
3985;SDS011;2007;48.750;9.278;2023-02-12T06:13:44;7.17;;;6.07;;
3985;SDS011;2007;48.750;9.278;2023-02-12T06:16:18;7.27;;;6.57;;
3985;SDS011;2007;48.750;9.278;2023-02-12T06:18:47;7.57;;;6.10;;
3985;SDS011;2007;48.750;9.278;2023-02-12T06:21:16;6.80;;;5.63;;
3985;SDS011;2007;48.750;9.278;2023-02-12T06:23:46;6.80;;;6.10;;
3985;SDS011;2007;48.750;9.278;2023-02-12T06:26:14;7.93;;;6.43;;
3985;SDS011;2007;48.750;9.278;2023-02-12T06:28:42;6.73;;;6.00;;
3985;SDS011;2007;48.750;9.278;2023-02-12T06:31:18;6.87;;;6.17;;
3985;SDS011;2007;48.750;9.278;2023-02-12T06:33:48;7.20;;;6.50;;
3985;SDS011;2007;48.750;9.278;2023-02-12T06:36:16;7.03;;;5.20;;
3985;SDS011;2007;48.750;9.278;2023-02-12T06:38:44;5.80;;;5.17;;
3985;SDS011;2007;48.750;9.278;2023-02-12T06:41:13;8.00;;;6.10;;
3985;SDS011;2007;48.750;9.278;2023-02-12T06:43:41;6.43;;;5.60;;
3985;SDS011;2007;48.750;9.278;2023-02-12T06:46:10;7.33;;;5.63;;
3985;SDS011;2007;48.750;9.278;2023-02-12T06:48:39;8.27;;;6.10;;
3985;SDS011;2007;48.750;9.278;2023-02-12T06:51:08;8.80;;;6.30;;
3985;SDS011;2007;48.750;9.278;2023-02-12T06:53:37;6.20;;;5.60;;
3985;SDS011;2007;48.750;9.278;2023-02-12T06:56:06;7.90;;;5.87;;
3985;SDS011;2007;48.750;9.278;2023-02-12T06:58:36;6.67;;;5.60;;
3985;SDS011;2007;48.750;9.278;2023-02-12T07:01:08;6.60;;;5.87;;
3985;SDS011;2007;48.750;9.278;2023-02-12T07:03:40;6.90;;;6.10;;
3985;SDS011;2007;48.750;9.278;2023-02-12T07:06:09;8.77;;;6.30;;
3985;SDS011;2007;48.750;9.278;2023-02-12T07:08:37;6.80;;;5.67;;
3985;SDS011;2007;48.750;9.278;2023-02-12T07:11:05;6.87;;;5.70;;
3985;SDS011;2007;48.750;9.278;2023-02-12T07:13:33;6.20;;;5.60;;
3985;SDS011;2007;48.750;9.278;2023-02-12T07:16:04;6.67;;;5.97;;
3985;SDS011;2007;48.750;9.278;2023-02-12T07:18:33;7.00;;;6.30;;
3985;SDS011;2007;48.750;9.278;2023-02-12T07:21:03;6.37;;;5.70;;
3985;SDS011;2007;48.750;9.278;2023-02-12T07:23:32;7.70;;;6.57;;
3985;SDS011;2007;48.750;9.278;2023-02-12T07:26:01;7.00;;;5.50;;
3985;SDS011;2007;48.750;9.278;2023-02-12T07:28:31;7.27;;;6.17;;
3985;SDS011;2007;48.750;9.278;2023-02-12T07:31:00;9.53;;;7.00;;
3985;SDS011;2007;48.750;9.278;2023-02-12T07:33:33;6.70;;;6.00;;
3985;SDS011;2007;48.750;9.278;2023-02-12T07:36:04;9.40;;;6.27;;
3985;SDS011;2007;48.750;9.278;2023-02-12T07:38:34;6.60;;;5.90;;
3985;SDS011;2007;48.750;9.278;2023-02-12T07:41:05;6.57;;;5.97;;
3985;SDS011;2007;48.750;9.278;2023-02-12T07:43:36;6.23;;;5.40;;
3985;SDS011;2007;48.750;9.278;2023-02-12T07:46:05;7.87;;;6.17;;
3985;SDS011;2007;48.750;9.278;2023-02-12T07:48:37;7.00;;;6.30;;
3985;SDS011;2007;48.750;9.278;2023-02-12T07:51:08;6.40;;;5.43;;
3985;SDS011;2007;48.750;9.278;2023-02-12T07:53:37;7.20;;;6.47;;
3985;SDS011;2007;48.750;9.278;2023-02-12T07:56:06;6.97;;;5.90;;
3985;SDS011;2007;48.750;9.278;2023-02-12T07:58:35;8.43;;;6.73;;
3985;SDS011;2007;48.750;9.278;2023-02-12T08:01:10;9.37;;;6.77;;
3985;SDS011;2007;48.750;9.278;2023-02-12T08:03:40;7.80;;;6.67;;
3985;SDS011;2007;48.750;9.278;2023-02-12T08:06:10;8.07;;;6.73;;
3985;SDS011;2007;48.750;9.278;2023-02-12T08:08:39;6.83;;;6.00;;
3985;SDS011;2007;48.750;9.278;2023-02-12T08:11:07;8.73;;;6.87;;
3985;SDS011;2007;48.750;9.278;2023-02-12T08:13:36;7.40;;;6.50;;
3985;SDS011;2007;48.750;9.278;2023-02-12T08:16:05;5.80;;;5.23;;
3985;SDS011;2007;48.750;9.278;2023-02-12T08:18:35;8.47;;;6.33;;
3985;SDS011;2007;48.750;9.278;2023-02-12T08:21:04;7.07;;;6.37;;
3985;SDS011;2007;48.750;9.278;2023-02-12T08:23:34;6.67;;;6.03;;
3985;SDS011;2007;48.750;9.278;2023-02-12T08:26:09;8.03;;;6.67;;
3985;SDS011;2007;48.750;9.278;2023-02-12T08:28:39;6.67;;;5.97;;
3985;SDS011;2007;48.750;9.278;2023-02-12T08:31:08;7.37;;;6.10;;
3985;SDS011;2007;48.750;9.278;2023-02-12T08:33:39;7.07;;;5.87;;
3985;SDS011;2007;48.750;9.278;2023-02-12T08:36:07;6.40;;;5.30;;
3985;SDS011;2007;48.750;9.278;2023-02-12T08:38:38;7.17;;;6.47;;
3985;SDS011;2007;48.750;9.278;2023-02-12T08:41:07;6.00;;;5.43;;
3985;SDS011;2007;48.750;9.278;2023-02-12T08:43:36;8.20;;;7.10;;
3985;SDS011;2007;48.750;9.278;2023-02-12T08:46:06;8.67;;;7.17;;
3985;SDS011;2007;48.750;9.278;2023-02-12T08:48:36;8.20;;;6.73;;
3985;SDS011;2007;48.750;9.278;2023-02-12T08:51:05;6.93;;;6.23;;
3985;SDS011;2007;48.750;9.278;2023-02-12T08:53:34;9.10;;;6.60;;
3985;SDS011;2007;48.750;9.278;2023-02-12T08:56:04;7.23;;;6.23;;
3985;SDS011;2007;48.750;9.278;2023-02-12T08:58:33;7.60;;;6.30;;
3985;SDS011;2007;48.750;9.278;2023-02-12T09:01:01;7.97;;;6.57;;
3985;SDS011;2007;48.750;9.278;2023-02-12T09:03:30;7.50;;;6.80;;
3985;SDS011;2007;48.750;9.278;2023-02-12T09:06:00;7.33;;;6.57;;
3985;SDS011;2007;48.750;9.278;2023-02-12T09:08:28;6.90;;;6.20;;
3985;SDS011;2007;48.750;9.278;2023-02-12T09:10:56;7.40;;;6.47;;
3985;SDS011;2007;48.750;9.278;2023-02-12T09:13:26;9.53;;;6.27;;
3985;SDS011;2007;48.750;9.278;2023-02-12T09:15:54;7.57;;;6.00;;
3985;SDS011;2007;48.750;9.278;2023-02-12T09:18:22;7.33;;;6.30;;
3985;SDS011;2007;48.750;9.278;2023-02-12T09:20:50;7.90;;;6.50;;
3985;SDS011;2007;48.750;9.278;2023-02-12T09:23:18;7.67;;;6.80;;
3985;SDS011;2007;48.750;9.278;2023-02-12T09:25:46;7.47;;;6.10;;
3985;SDS011;2007;48.750;9.278;2023-02-12T09:28:14;7.90;;;6.03;;
3985;SDS011;2007;48.750;9.278;2023-02-12T09:30:43;9.20;;;6.20;;
3985;SDS011;2007;48.750;9.278;2023-02-12T09:33:11;7.73;;;6.60;;
3985;SDS011;2007;48.750;9.278;2023-02-12T09:35:39;8.00;;;7.20;;
3985;SDS011;2007;48.750;9.278;2023-02-12T09:38:07;7.77;;;6.57;;
3985;SDS011;2007;48.750;9.278;2023-02-12T09:40:38;7.17;;;6.00;;
3985;SDS011;2007;48.750;9.278;2023-02-12T09:43:17;6.60;;;5.70;;
3985;SDS011;2007;48.750;9.278;2023-02-12T09:45:54;7.70;;;6.10;;
3985;SDS011;2007;48.750;9.278;2023-02-12T09:48:40;8.40;;;6.50;;
3985;SDS011;2007;48.750;9.278;2023-02-12T09:51:14;8.47;;;6.67;;
3985;SDS011;2007;48.750;9.278;2023-02-12T09:53:43;7.17;;;6.43;;
3985;SDS011;2007;48.750;9.278;2023-02-12T09:56:15;6.67;;;5.87;;
3985;SDS011;2007;48.750;9.278;2023-02-12T09:58:45;7.67;;;6.60;;
3985;SDS011;2007;48.750;9.278;2023-02-12T10:01:18;7.33;;;5.87;;
3985;SDS011;2007;48.750;9.278;2023-02-12T10:03:48;7.70;;;6.90;;
3985;SDS011;2007;48.750;9.278;2023-02-12T10:06:18;7.37;;;6.53;;
3985;SDS011;2007;48.750;9.278;2023-02-12T10:08:52;7.17;;;6.30;;
3985;SDS011;2007;48.750;9.278;2023-02-12T10:11:39;6.70;;;5.47;;
3985;SDS011;2007;48.750;9.278;2023-02-12T10:14:22;7.37;;;5.77;;
3985;SDS011;2007;48.750;9.278;2023-02-12T10:17:21;7.23;;;6.30;;
3985;SDS011;2007;48.750;9.278;2023-02-12T10:20:11;6.90;;;6.20;;
3985;SDS011;2007;48.750;9.278;2023-02-12T10:23:03;6.50;;;5.80;;
3985;SDS011;2007;48.750;9.278;2023-02-12T10:25:46;7.17;;;5.90;;
3985;SDS011;2007;48.750;9.278;2023-02-12T10:28:22;8.23;;;6.37;;
3985;SDS011;2007;48.750;9.278;2023-02-12T10:30:53;6.70;;;5.70;;
3985;SDS011;2007;48.750;9.278;2023-02-12T10:33:26;8.03;;;6.20;;
3985;SDS011;2007;48.750;9.278;2023-02-12T10:35:58;7.47;;;6.17;;
3985;SDS011;2007;48.750;9.278;2023-02-12T10:38:34;7.17;;;6.03;;
3985;SDS011;2007;48.750;9.278;2023-02-12T10:41:05;6.90;;;5.83;;
3985;SDS011;2007;48.750;9.278;2023-02-12T10:43:36;6.00;;;5.40;;
3985;SDS011;2007;48.750;9.278;2023-02-12T10:46:04;6.70;;;5.43;;
3985;SDS011;2007;48.750;9.278;2023-02-12T10:48:34;7.10;;;6.23;;
3985;SDS011;2007;48.750;9.278;2023-02-12T10:51:10;7.27;;;5.87;;
3985;SDS011;2007;48.750;9.278;2023-02-12T10:53:50;7.93;;;5.77;;
3985;SDS011;2007;48.750;9.278;2023-02-12T10:56:20;9.80;;;6.23;;
3985;SDS011;2007;48.750;9.278;2023-02-12T10:58:51;6.63;;;5.63;;
3985;SDS011;2007;48.750;9.278;2023-02-12T11:01:22;5.20;;;4.67;;
3985;SDS011;2007;48.750;9.278;2023-02-12T11:03:54;6.47;;;5.07;;
3985;SDS011;2007;48.750;9.278;2023-02-12T11:06:26;7.33;;;5.87;;
3985;SDS011;2007;48.750;9.278;2023-02-12T11:08:55;6.60;;;6.00;;
3985;SDS011;2007;48.750;9.278;2023-02-12T11:11:25;6.00;;;5.00;;
3985;SDS011;2007;48.750;9.278;2023-02-12T11:13:56;5.43;;;4.90;;
3985;SDS011;2007;48.750;9.278;2023-02-12T11:16:27;5.50;;;4.87;;
3985;SDS011;2007;48.750;9.278;2023-02-12T11:18:59;6.10;;;5.47;;
3985;SDS011;2007;48.750;9.278;2023-02-12T11:21:30;8.60;;;5.20;;
3985;SDS011;2007;48.750;9.278;2023-02-12T11:26:48;5.20;;;4.70;;
3985;SDS011;2007;48.750;9.278;2023-02-12T11:29:17;5.40;;;4.80;;
3985;SDS011;2007;48.750;9.278;2023-02-12T11:31:58;5.20;;;4.70;;
3985;SDS011;2007;48.750;9.278;2023-02-12T11:34:28;5.40;;;4.90;;
3985;SDS011;2007;48.750;9.278;2023-02-12T11:36:56;5.03;;;4.53;;
3985;SDS011;2007;48.750;9.278;2023-02-12T11:39:26;6.07;;;4.57;;
3985;SDS011;2007;48.750;9.278;2023-02-12T11:41:58;5.10;;;4.63;;
3985;SDS011;2007;48.750;9.278;2023-02-12T11:44:29;5.33;;;4.83;;
3985;SDS011;2007;48.750;9.278;2023-02-12T11:47:01;4.80;;;4.40;;
3985;SDS011;2007;48.750;9.278;2023-02-12T11:49:38;5.43;;;4.90;;
3985;SDS011;2007;48.750;9.278;2023-02-12T11:52:13;6.33;;;5.57;;
3985;SDS011;2007;48.750;9.278;2023-02-12T11:54:47;5.23;;;4.60;;
3985;SDS011;2007;48.750;9.278;2023-02-12T11:57:36;4.97;;;4.47;;
3985;SDS011;2007;48.750;9.278;2023-02-12T12:00:10;6.10;;;4.50;;
3985;SDS011;2007;48.750;9.278;2023-02-12T12:02:41;5.80;;;4.77;;
3985;SDS011;2007;48.750;9.278;2023-02-12T12:05:17;5.70;;;5.13;;
3985;SDS011;2007;48.750;9.278;2023-02-12T12:07:47;5.00;;;4.23;;
3985;SDS011;2007;48.750;9.278;2023-02-12T12:10:20;4.90;;;4.40;;
3985;SDS011;2007;48.750;9.278;2023-02-12T12:12:55;4.70;;;4.30;;
3985;SDS011;2007;48.750;9.278;2023-02-12T12:15:29;5.50;;;4.60;;
3985;SDS011;2007;48.750;9.278;2023-02-12T12:18:21;5.27;;;4.50;;
3985;SDS011;2007;48.750;9.278;2023-02-12T12:21:12;5.43;;;4.93;;
3985;SDS011;2007;48.750;9.278;2023-02-12T12:23:46;5.23;;;4.60;;
3985;SDS011;2007;48.750;9.278;2023-02-12T12:26:19;4.97;;;4.47;;
3985;SDS011;2007;48.750;9.278;2023-02-12T12:28:52;5.40;;;4.50;;
3985;SDS011;2007;48.750;9.278;2023-02-12T12:31:26;4.80;;;4.30;;
3985;SDS011;2007;48.750;9.278;2023-02-12T12:33:59;5.27;;;4.47;;
3985;SDS011;2007;48.750;9.278;2023-02-12T12:36:56;4.33;;;3.93;;
3985;SDS011;2007;48.750;9.278;2023-02-12T12:39:42;4.13;;;3.73;;
3985;SDS011;2007;48.750;9.278;2023-02-12T12:42:45;4.90;;;3.87;;
3985;SDS011;2007;48.750;9.278;2023-02-12T12:45:27;6.20;;;4.47;;
3985;SDS011;2007;48.750;9.278;2023-02-12T12:48:25;5.20;;;3.83;;
3985;SDS011;2007;48.750;9.278;2023-02-12T12:51:08;4.70;;;4.00;;
3985;SDS011;2007;48.750;9.278;2023-02-12T12:53:53;6.10;;;4.03;;
3985;SDS011;2007;48.750;9.278;2023-02-12T12:56:41;3.70;;;3.40;;
3985;SDS011;2007;48.750;9.278;2023-02-12T12:59:23;4.10;;;3.70;;
3985;SDS011;2007;48.750;9.278;2023-02-12T13:02:21;4.83;;;3.97;;
3985;SDS011;2007;48.750;9.278;2023-02-12T13:05:18;4.70;;;4.23;;
3985;SDS011;2007;48.750;9.278;2023-02-12T13:08:03;4.83;;;4.30;;
3985;SDS011;2007;48.750;9.278;2023-02-12T13:10:45;4.73;;;4.20;;
3985;SDS011;2007;48.750;9.278;2023-02-12T13:13:23;4.07;;;3.67;;
3985;SDS011;2007;48.750;9.278;2023-02-12T13:15:59;3.50;;;3.20;;
3985;SDS011;2007;48.750;9.278;2023-02-12T13:18:39;4.70;;;3.50;;
3985;SDS011;2007;48.750;9.278;2023-02-12T13:21:15;4.20;;;3.80;;
3985;SDS011;2007;48.750;9.278;2023-02-12T13:23:56;4.10;;;3.70;;
3985;SDS011;2007;48.750;9.278;2023-02-12T13:26:32;4.70;;;4.20;;
3985;SDS011;2007;48.750;9.278;2023-02-12T13:29:11;4.50;;;3.67;;
3985;SDS011;2007;48.750;9.278;2023-02-12T13:31:46;4.27;;;3.87;;
3985;SDS011;2007;48.750;9.278;2023-02-12T13:34:19;5.13;;;4.03;;
3985;SDS011;2007;48.750;9.278;2023-02-12T13:36:51;3.80;;;3.40;;
3985;SDS011;2007;48.750;9.278;2023-02-12T13:39:22;5.20;;;3.80;;
3985;SDS011;2007;48.750;9.278;2023-02-12T13:42:02;4.03;;;3.33;;
3985;SDS011;2007;48.750;9.278;2023-02-12T13:44:39;4.00;;;3.60;;
3985;SDS011;2007;48.750;9.278;2023-02-12T13:47:13;4.27;;;3.97;;
3985;SDS011;2007;48.750;9.278;2023-02-12T13:49:53;3.90;;;3.50;;
3985;SDS011;2007;48.750;9.278;2023-02-12T13:52:27;3.97;;;3.57;;
3985;SDS011;2007;48.750;9.278;2023-02-12T13:55:09;5.00;;;3.67;;
3985;SDS011;2007;48.750;9.278;2023-02-12T14:00:57;3.40;;;3.00;;
3985;SDS011;2007;48.750;9.278;2023-02-12T14:03:26;4.60;;;3.70;;
3985;SDS011;2007;48.750;9.278;2023-02-12T14:06:06;5.30;;;3.70;;
3985;SDS011;2007;48.750;9.278;2023-02-12T14:08:39;6.50;;;3.67;;
3985;SDS011;2007;48.750;9.278;2023-02-12T14:11:10;3.90;;;3.50;;
3985;SDS011;2007;48.750;9.278;2023-02-12T14:13:47;4.40;;;3.27;;
3985;SDS011;2007;48.750;9.278;2023-02-12T14:16:35;3.60;;;3.23;;
3985;SDS011;2007;48.750;9.278;2023-02-12T14:22:11;4.50;;;3.73;;
3985;SDS011;2007;48.750;9.278;2023-02-12T14:24:46;4.10;;;3.70;;
3985;SDS011;2007;48.750;9.278;2023-02-12T14:27:24;3.70;;;3.40;;
3985;SDS011;2007;48.750;9.278;2023-02-12T14:29:59;3.80;;;3.40;;
3985;SDS011;2007;48.750;9.278;2023-02-12T14:35:43;4.73;;;3.73;;
3985;SDS011;2007;48.750;9.278;2023-02-12T14:41:28;5.03;;;3.63;;
3985;SDS011;2007;48.750;9.278;2023-02-12T14:50:18;3.90;;;3.40;;
3985;SDS011;2007;48.750;9.278;2023-02-12T14:53:02;5.00;;;3.87;;
3985;SDS011;2007;48.750;9.278;2023-02-12T14:55:38;3.30;;;3.00;;
3985;SDS011;2007;48.750;9.278;2023-02-12T14:58:13;3.17;;;2.87;;
3985;SDS011;2007;48.750;9.278;2023-02-12T15:00:45;3.70;;;3.40;;
3985;SDS011;2007;48.750;9.278;2023-02-12T15:03:16;3.93;;;2.83;;
3985;SDS011;2007;48.750;9.278;2023-02-12T15:05:54;3.17;;;2.87;;
3985;SDS011;2007;48.750;9.278;2023-02-12T15:08:30;4.23;;;3.03;;
3985;SDS011;2007;48.750;9.278;2023-02-12T15:11:08;4.57;;;3.10;;
3985;SDS011;2007;48.750;9.278;2023-02-12T15:13:47;3.57;;;3.27;;
3985;SDS011;2007;48.750;9.278;2023-02-12T15:16:23;4.40;;;3.13;;
3985;SDS011;2007;48.750;9.278;2023-02-12T15:18:59;3.40;;;3.00;;
3985;SDS011;2007;48.750;9.278;2023-02-12T15:21:34;2.80;;;2.60;;
3985;SDS011;2007;48.750;9.278;2023-02-12T15:24:03;3.00;;;2.63;;
3985;SDS011;2007;48.750;9.278;2023-02-12T15:26:33;3.40;;;3.10;;
3985;SDS011;2007;48.750;9.278;2023-02-12T15:29:06;2.90;;;2.57;;
3985;SDS011;2007;48.750;9.278;2023-02-12T15:31:49;4.10;;;3.23;;
3985;SDS011;2007;48.750;9.278;2023-02-12T15:34:19;4.00;;;3.20;;
3985;SDS011;2007;48.750;9.278;2023-02-12T15:36:50;4.07;;;3.20;;
3985;SDS011;2007;48.750;9.278;2023-02-12T15:39:21;2.53;;;2.33;;
3985;SDS011;2007;48.750;9.278;2023-02-12T15:41:50;3.77;;;3.37;;
3985;SDS011;2007;48.750;9.278;2023-02-12T15:44:20;3.47;;;3.03;;
3985;SDS011;2007;48.750;9.278;2023-02-12T15:46:54;3.30;;;3.00;;
3985;SDS011;2007;48.750;9.278;2023-02-12T15:49:29;3.20;;;2.80;;
3985;SDS011;2007;48.750;9.278;2023-02-12T15:52:00;4.43;;;2.80;;
3985;SDS011;2007;48.750;9.278;2023-02-12T15:54:32;2.93;;;2.63;;
3985;SDS011;2007;48.750;9.278;2023-02-12T15:57:00;2.57;;;2.37;;
3985;SDS011;2007;48.750;9.278;2023-02-12T15:59:35;3.70;;;3.27;;
3985;SDS011;2007;48.750;9.278;2023-02-12T16:02:15;2.83;;;2.53;;
3985;SDS011;2007;48.750;9.278;2023-02-12T16:04:46;3.57;;;2.87;;
3985;SDS011;2007;48.750;9.278;2023-02-12T16:07:15;4.03;;;2.73;;
3985;SDS011;2007;48.750;9.278;2023-02-12T16:09:44;3.20;;;2.90;;
3985;SDS011;2007;48.750;9.278;2023-02-12T16:12:13;3.00;;;2.50;;
3985;SDS011;2007;48.750;9.278;2023-02-12T16:14:45;2.97;;;2.67;;